Time;durP1;ratioP1;P1;durP2;ratioP2;P2;SDS_P1;SDS_P2;PMS_P1;PMS_P2;Temp;Humidity;BMP_temperature;BMP_pressure;BME280_temperature;BME280_humidity;BME280_pressure;Samples;Min_cycle;Max_cycle;Signal;HPM_P1;HPM_P2
2022/07/27 00:02:19;;;;;;;9.05;5.65;;;;;;;20.47;100.00;99911.75;5074308;28;20041;-68
2022/07/27 00:04:47;;;;;;;7.38;5.50;;;;;;;20.39;100.00;99918.97;5073015;28;20044;-69
2022/07/27 00:07:15;;;;;;;8.85;5.85;;;;;;;20.36;100.00;99925.53;5072976;28;20049;-68
2022/07/27 00:09:43;;;;;;;6.30;5.00;;;;;;;20.29;100.00;99929.94;5073342;28;20048;-69
2022/07/27 00:12:12;;;;;;;8.30;5.32;;;;;;;20.24;100.00;99924.97;5074134;28;20041;-68
2022/07/27 00:14:41;;;;;;;8.35;5.38;;;;;;;20.24;100.00;99929.56;5073881;28;20075;-69
2022/07/27 00:17:10;;;;;;;8.35;5.50;;;;;;;20.22;100.00;99928.88;5074001;28;20040;-69
2022/07/27 00:19:39;;;;;;;6.82;5.53;;;;;;;20.19;100.00;99924.63;5073656;28;20041;-68
2022/07/27 00:22:07;;;;;;;7.88;5.00;;;;;;;20.15;100.00;99919.69;5074106;28;20099;-68
2022/07/27 00:24:35;;;;;;;7.55;5.22;;;;;;;20.12;100.00;99925.44;5072582;28;20090;-68
2022/07/27 00:27:03;;;;;;;7.53;5.20;;;;;;;20.01;100.00;99927.41;5073858;28;20123;-68
2022/07/27 00:29:31;;;;;;;7.25;5.47;;;;;;;20.10;100.00;99913.94;5073398;28;20553;-69
2022/07/27 00:32:00;;;;;;;7.30;5.40;;;;;;;20.00;100.00;99920.31;5073525;28;20135;-69
2022/07/27 00:34:29;;;;;;;8.77;5.05;;;;;;;19.97;100.00;99923.31;5073723;28;20045;-69
2022/07/27 00:36:57;;;;;;;6.80;5.00;;;;;;;19.99;100.00;99920.47;5073545;28;20102;-69
2022/07/27 00:39:25;;;;;;;9.80;5.22;;;;;;;20.02;100.00;99926.41;5073047;28;20036;-69
2022/07/27 00:41:53;;;;;;;6.70;5.20;;;;;;;19.93;100.00;99930.06;5073865;28;20430;-69
2022/07/27 00:44:26;;;;;;;7.82;5.40;;;;;;;19.90;100.00;99926.84;5073080;28;20044;-69
2022/07/27 00:46:54;;;;;;;7.18;5.32;;;;;;;19.86;100.00;99930.88;5073767;28;20072;-69
2022/07/27 00:49:23;;;;;;;7.03;5.18;;;;;;;19.90;100.00;99935.81;5073400;28;20048;-69
2022/07/27 00:51:53;;;;;;;6.47;4.85;;;;;;;19.80;100.00;99935.06;5073479;28;20048;-69
2022/07/27 00:54:22;;;;;;;6.85;4.78;;;;;;;19.94;100.00;99936.34;5073287;28;20044;-70
2022/07/27 00:56:50;;;;;;;8.20;5.43;;;;;;;19.98;100.00;99938.56;5073254;28;20070;-69
2022/07/27 00:59:20;;;;;;;6.72;4.78;;;;;;;19.96;100.00;99939.72;5073527;28;20493;-69
2022/07/27 01:01:48;;;;;;;7.13;5.05;;;;;;;19.90;100.00;99935.81;5073468;28;20131;-69
2022/07/27 01:04:17;;;;;;;6.47;5.10;;;;;;;19.91;100.00;99942.91;5073487;28;20042;-69
2022/07/27 01:06:48;;;;;;;7.38;4.85;;;;;;;19.98;100.00;99941.28;5073162;28;20078;-69
2022/07/27 01:12:03;;;;;;;7.78;5.20;;;;;;;19.84;100.00;99941.84;5073555;28;20036;-68
2022/07/27 01:14:32;;;;;;;8.10;5.38;;;;;;;19.82;100.00;99938.47;5072913;28;20048;-69
2022/07/27 01:17:00;;;;;;;6.93;5.10;;;;;;;19.76;100.00;99939.09;5073317;28;20044;-69
2022/07/27 01:19:28;;;;;;;8.55;5.25;;;;;;;19.79;100.00;99941.50;5072971;28;20048;-69
2022/07/27 01:21:57;;;;;;;8.68;5.55;;;;;;;19.72;100.00;99935.88;5071777;28;20051;-69
2022/07/27 01:24:26;;;;;;;6.15;4.90;;;;;;;19.67;100.00;99931.91;5072997;28;20119;-69
2022/07/27 01:26:54;;;;;;;7.55;5.15;;;;;;;19.70;100.00;99939.75;5073054;28;20067;-69
2022/07/27 01:29:22;;;;;;;7.57;5.28;;;;;;;19.65;100.00;99936.66;5072973;28;20063;-69
2022/07/27 01:31:50;;;;;;;7.32;5.13;;;;;;;19.60;100.00;99936.28;5073219;28;20471;-69
2022/07/27 01:34:18;;;;;;;7.65;5.65;;;;;;;19.33;100.00;99940.78;5072848;28;20048;-69
2022/07/27 01:36:47;;;;;;;7.30;5.30;;;;;;;19.34;100.00;99945.16;5072844;28;20048;-69
2022/07/27 01:39:17;;;;;;;6.25;4.90;;;;;;;19.26;100.00;99931.56;5073043;28;20118;-68
2022/07/27 01:41:46;;;;;;;8.00;5.45;;;;;;;19.35;100.00;99937.91;5072609;28;20561;-69
2022/07/27 01:44:14;;;;;;;9.40;5.35;;;;;;;19.28;100.00;99942.22;5072947;28;20048;-69
2022/07/27 01:46:44;;;;;;;8.65;5.85;;;;;;;19.32;100.00;99940.94;5071369;28;20117;-69
2022/07/27 01:49:12;;;;;;;7.90;5.28;;;;;;;19.29;100.00;99936.66;5072956;28;20145;-69
2022/07/27 01:51:41;;;;;;;6.75;5.30;;;;;;;19.24;100.00;99939.00;5075408;28;20048;-68
2022/07/27 01:54:09;;;;;;;8.20;5.55;;;;;;;19.25;100.00;99939.84;5076980;28;20036;-69
2022/07/27 01:56:38;;;;;;;8.25;5.50;;;;;;;19.18;100.00;99939.59;5076542;28;20045;-69
2022/07/27 01:59:06;;;;;;;8.00;5.35;;;;;;;19.07;100.00;99931.72;5076663;28;20044;-69
2022/07/27 02:01:43;;;;;;;8.00;5.38;;;;;;;19.03;100.00;99931.19;5074997;28;20543;-69
2022/07/27 02:04:12;;;;;;;7.15;5.22;;;;;;;18.91;100.00;99936.97;5076837;28;20393;-69
2022/07/27 02:06:40;;;;;;;8.18;5.45;;;;;;;18.87;100.00;99937.28;5076398;28;20041;-69
2022/07/27 02:09:08;;;;;;;7.72;5.50;;;;;;;18.86;100.00;99932.03;5076509;28;20048;-69
2022/07/27 02:14:24;;;;;;;7.97;5.85;;;;;;;18.88;100.00;99922.75;5076653;28;20047;-68
2022/07/27 02:16:52;;;;;;;8.00;5.22;;;;;;;18.98;100.00;99932.66;5076237;28;20414;-68
2022/07/27 02:19:23;;;;;;;10.27;5.57;;;;;;;18.93;100.00;99935.84;5076388;28;20488;-68
2022/07/27 02:21:51;;;;;;;7.85;5.68;;;;;;;18.82;100.00;99939.59;5076168;28;20048;-68
2022/07/27 02:24:19;;;;;;;7.68;5.50;;;;;;;18.70;100.00;99938.09;5076061;28;20047;-68
2022/07/27 02:26:48;;;;;;;8.48;5.60;;;;;;;18.64;100.00;99930.59;5076023;28;20040;-68
2022/07/27 02:29:17;;;;;;;9.02;5.88;;;;;;;18.59;100.00;99938.28;5075886;28;20040;-68
2022/07/27 02:31:45;;;;;;;9.15;5.88;;;;;;;18.53;100.00;99939.75;5076052;28;20063;-68
2022/07/27 02:34:13;;;;;;;7.65;5.70;;;;;;;18.57;100.00;99941.16;5074764;28;20048;-69
2022/07/27 02:36:41;;;;;;;8.07;5.65;;;;;;;18.94;100.00;99942.09;5074428;28;20410;-69
2022/07/27 02:39:09;;;;;;;7.32;5.18;;;;;;;18.89;100.00;99934.41;5075986;28;20071;-69
2022/07/27 02:41:38;;;;;;;7.25;5.53;;;;;;;18.94;100.00;99942.09;5075952;28;20037;-69
2022/07/27 02:44:07;;;;;;;8.77;5.32;;;;;;;19.02;100.00;99945.72;5076000;28;20405;-69
2022/07/27 02:46:35;;;;;;;7.68;5.45;;;;;;;18.86;100.00;99946.41;5075423;28;20075;-69
2022/07/27 02:49:04;;;;;;;9.23;5.85;;;;;;;18.67;100.00;99948.38;5075571;28;20052;-70
2022/07/27 02:51:33;;;;;;;8.45;6.22;;;;;;;18.52;100.00;99942.59;5075311;28;20536;-70
2022/07/27 02:54:01;;;;;;;7.07;5.70;;;;;;;18.45;100.00;99938.81;5075686;28;20090;-69
2022/07/27 02:56:29;;;;;;;9.32;6.28;;;;;;;18.47;100.00;99945.75;5075479;28;20131;-70
2022/07/27 02:58:57;;;;;;;9.13;5.97;;;;;;;18.44;100.00;99945.22;5075806;28;20063;-69
2022/07/27 03:01:27;;;;;;;8.23;5.40;;;;;;;18.39;100.00;99947.50;5074934;28;20090;-68
2022/07/27 03:03:55;;;;;;;8.45;5.88;;;;;;;18.32;100.00;99949.94;5075475;28;20378;-68
2022/07/27 03:06:23;;;;;;;9.35;6.10;;;;;;;18.33;100.00;99948.09;5075770;28;20048;-68
2022/07/27 03:08:52;;;;;;;8.80;5.88;;;;;;;18.35;100.00;99951.50;5075549;28;20048;-68
2022/07/27 03:11:20;;;;;;;12.50;6.38;;;;;;;18.38;100.00;99951.19;5075431;28;20417;-68
2022/07/27 03:13:48;;;;;;;7.97;5.60;;;;;;;18.42;100.00;99958.00;5075129;28;20040;-68
2022/07/27 03:16:16;;;;;;;9.32;6.00;;;;;;;18.46;100.00;99960.25;5074013;28;20421;-68
2022/07/27 03:18:46;;;;;;;10.10;5.85;;;;;;;18.52;100.00;99958.78;5075213;28;20037;-69
2022/07/27 03:21:16;;;;;;;7.57;5.43;;;;;;;18.58;100.00;99958.19;5075607;28;20044;-69
2022/07/27 03:23:45;;;;;;;8.32;5.80;;;;;;;18.62;100.00;99951.47;5075137;28;20036;-69
2022/07/27 03:26:13;;;;;;;10.50;6.20;;;;;;;18.56;100.00;99955.66;5075217;28;20440;-69
2022/07/27 03:28:41;;;;;;;8.45;5.65;;;;;;;18.55;100.00;99940.44;5074770;28;20094;-69
2022/07/27 03:31:09;;;;;;;11.18;5.85;;;;;;;18.73;100.00;99939.69;5073703;28;20143;-69
2022/07/27 03:33:37;;;;;;;8.43;6.28;;;;;;;18.82;100.00;99939.59;5075239;28;20048;-69
2022/07/27 03:36:07;;;;;;;10.05;5.78;;;;;;;18.77;100.00;99941.91;5075090;28;20075;-69
2022/07/27 03:38:36;;;;;;;9.48;5.88;;;;;;;18.65;100.00;99943.13;5074558;28;20048;-66
2022/07/27 03:41:05;;;;;;;9.65;6.28;;;;;;;18.59;100.00;99943.69;5074874;28;20060;-66
2022/07/27 03:43:33;;;;;;;8.85;6.30;;;;;;;18.60;100.00;99945.38;5073174;28;20515;-67
2022/07/27 03:46:01;;;;;;;8.77;6.63;;;;;;;18.64;100.00;99941.41;5074912;28;20111;-68
2022/07/27 03:48:30;;;;;;;8.32;6.38;;;;;;;18.67;100.00;99945.66;5074731;28;20482;-67
2022/07/27 03:50:58;;;;;;;11.90;6.80;;;;;;;18.74;100.00;99958.44;5074491;28;20044;-67
2022/07/27 03:53:28;;;;;;;10.25;6.38;;;;;;;18.84;100.00;99956.50;5074593;28;20063;-67
2022/07/27 03:55:56;;;;;;;8.90;5.95;;;;;;;19.06;100.00;99957.06;5073050;28;20432;-67
2022/07/27 03:58:24;;;;;;;12.55;6.25;;;;;;;19.45;100.00;99950.31;5073428;28;20052;-66
2022/07/27 04:00:52;;;;;;;9.10;5.80;;;;;;;20.20;100.00;99947.16;5074298;28;20410;-65
2022/07/27 04:03:21;;;;;;;10.65;6.28;;;;;;;21.40;100.00;99941.41;5073175;28;20098;-66
2022/07/27 04:05:49;;;;;;;9.55;5.68;;;;;;;22.01;100.00;99945.44;5074022;28;20123;-66
2022/07/27 04:08:19;;;;;;;10.20;5.82;;;;;;;22.44;100.00;99948.72;5074155;28;20052;-66
2022/07/27 04:10:48;;;;;;;10.05;5.78;;;;;;;23.10;100.00;99953.66;5073979;28;20144;-65
2022/07/27 04:13:17;;;;;;;9.52;5.47;;;;;;;23.61;100.00;99934.09;5073435;28;20044;-65
2022/07/27 04:15:45;;;;;;;7.95;5.65;;;;;;;24.39;100.00;99938.22;5073718;28;20045;-65
2022/07/27 04:18:13;;;;;;;7.20;5.07;;;;;;;24.65;100.00;99935.00;5074094;28;20444;-65
2022/07/27 04:20:41;;;;;;;9.57;5.70;;;;;;;24.69;100.00;99939.03;5073641;28;20401;-66
2022/07/27 04:23:09;;;;;;;8.13;4.55;;;;;;;24.93;100.00;99933.25;5073661;28;20048;-66
2022/07/27 04:25:38;;;;;;;7.68;5.00;;;;;;;24.95;100.00;99950.25;5072470;28;20044;-66
2022/07/27 04:28:07;;;;;;;9.15;5.63;;;;;;;24.94;100.00;99951.28;5073724;28;20040;-65
2022/07/27 04:30:35;;;;;;;7.53;5.22;;;;;;;25.02;100.00;99955.81;5072996;28;20497;-67
2022/07/27 04:33:04;;;;;;;11.18;5.53;;;;;;;24.63;100.00;99961.63;5073643;28;20495;-66
2022/07/27 04:35:32;;;;;;;11.88;5.55;;;;;;;24.83;100.00;99954.53;5073577;28;20041;-67
2022/07/27 04:38:00;;;;;;;10.23;5.68;;;;;;;25.38;100.00;99948.44;5073612;28;20068;-67
2022/07/27 04:40:32;;;;;;;9.43;5.30;;;;;;;26.12;100.00;99952.63;5073682;28;20048;-67
2022/07/27 04:43:01;;;;;;;10.32;5.10;;;;;;;26.44;100.00;99956.63;5073541;28;20044;-67
2022/07/27 04:45:31;;;;;;;10.75;5.30;;;;;;;26.37;100.00;99961.22;5073528;28;20123;-67
2022/07/27 04:48:00;;;;;;;8.80;5.25;;;;;;;26.60;100.00;99967.25;5073675;28;20044;-67
2022/07/27 04:50:28;;;;;;;8.20;5.50;;;;;;;27.13;81.14;99959.28;5072327;28;20411;-67
2022/07/27 04:52:56;;;;;;;12.35;5.93;;;;;;;26.30;83.60;99965.78;5073051;28;20048;-67
2022/07/27 04:55:24;;;;;;;9.23;5.32;;;;;;;26.99;77.44;99960.22;5073536;28;20412;-67
2022/07/27 04:57:52;;;;;;;7.45;5.22;;;;;;;27.26;68.17;99953.81;5073076;28;20055;-67
2022/07/27 05:00:20;;;;;;;8.50;4.65;;;;;;;27.50;64.08;99957.00;5073069;28;20086;-67
2022/07/27 05:02:50;;;;;;;10.40;5.50;;;;;;;27.89;52.17;99965.28;5073090;28;20048;-67
2022/07/27 05:05:18;;;;;;;7.43;4.93;;;;;;;28.04;49.95;99964.19;5073072;28;20119;-67
2022/07/27 05:07:46;;;;;;;8.18;4.43;;;;;;;28.72;44.86;99956.47;5072942;28;20037;-68
2022/07/27 05:10:14;;;;;;;7.18;4.72;;;;;;;28.75;43.63;99975.22;5073182;28;20082;-67
2022/07/27 05:12:48;;;;;;;7.65;4.80;;;;;;;27.99;46.12;99974.94;5072936;28;20045;-68
2022/07/27 05:15:16;;;;;;;7.90;4.68;;;;;;;28.31;45.08;99965.88;5073004;28;20127;-68
2022/07/27 05:17:44;;;;;;;9.93;5.22;;;;;;;28.61;43.39;99976.34;5072873;28;20059;-67
2022/07/27 05:20:16;;;;;;;7.25;4.70;;;;;;;29.20;41.53;99975.25;5073256;28;20130;-67
2022/07/27 05:22:44;;;;;;;9.45;4.93;;;;;;;29.40;40.93;99970.47;5072794;28;20482;-66
2022/07/27 05:25:12;;;;;;;9.23;4.80;;;;;;;29.74;39.85;99976.63;5072545;28;20060;-67
2022/07/27 05:27:41;;;;;;;6.68;4.80;;;;;;;29.34;39.86;99983.22;5071387;28;20048;-68
2022/07/27 05:30:22;;;;;;;8.05;4.70;;;;;;;28.46;41.59;99985.66;5071820;28;20421;-68
2022/07/27 05:32:50;;;;;;;7.28;4.35;;;;;;;29.40;39.71;99986.13;5072213;28;20076;-68
2022/07/27 05:35:20;;;;;;;6.50;4.15;;;;;;;29.92;38.15;99999.50;5071487;28;20098;-67
2022/07/27 05:37:48;;;;;;;7.50;4.13;;;;;;;30.25;37.73;99983.81;5072467;28;20044;-68
2022/07/27 05:40:16;;;;;;;7.53;4.63;;;;;;;30.56;36.65;99988.31;5072693;28;20049;-68
2022/07/27 05:42:44;;;;;;;5.90;4.13;;;;;;;30.17;36.50;99994.00;5072741;28;20051;-67
2022/07/27 05:45:15;;;;;;;8.95;4.72;;;;;;;30.26;36.37;99996.47;5072662;28;20052;-68
2022/07/27 05:47:43;;;;;;;6.28;4.10;;;;;;;30.12;36.54;99995.78;5071273;28;20405;-68
2022/07/27 05:50:11;;;;;;;7.57;4.10;;;;;;;30.36;35.31;99996.78;5071208;28;20048;-67
2022/07/27 05:52:42;;;;;;;8.02;4.15;;;;;;;30.41;35.89;100005.22;5070863;28;20048;-69
2022/07/27 05:55:10;;;;;;;7.88;4.07;;;;;;;30.49;36.41;100005.75;5072946;28;20044;-68
2022/07/27 05:57:40;;;;;;;6.68;4.30;;;;;;;30.65;34.95;100012.59;5072859;28;20045;-68
2022/07/27 06:00:10;;;;;;;5.80;3.67;;;;;;;30.25;35.10;100005.81;5072537;28;20039;-68
2022/07/27 06:02:39;;;;;;;5.88;3.95;;;;;;;30.65;34.79;100017.25;5072725;28;20124;-67
2022/07/27 06:05:08;;;;;;;6.68;3.80;;;;;;;30.53;34.52;100014.41;5072351;28;20110;-68
2022/07/27 06:07:57;;;;;;;7.13;3.45;;;;;;;30.96;33.86;100016.25;5072277;28;20129;-69
2022/07/27 06:10:27;;;;;;;7.07;3.60;;;;;;;31.17;33.39;100014.91;5072246;28;20043;-68
2022/07/27 06:12:56;;;;;;;6.30;3.20;;;;;;;31.17;32.81;100018.50;5070960;28;20048;-69
2022/07/27 06:15:24;;;;;;;5.93;3.20;;;;;;;30.86;33.24;100021.47;5072318;28;20055;-69
2022/07/27 06:17:53;;;;;;;6.88;3.20;;;;;;;30.37;33.17;100024.06;5071962;28;20072;-69
2022/07/27 06:20:23;;;;;;;6.68;2.92;;;;;;;30.88;32.24;100031.16;5072358;28;20409;-69
2022/07/27 06:22:56;;;;;;;7.72;2.83;;;;;;;30.58;33.45;100031.06;5072264;28;20091;-68
2022/07/27 06:25:24;;;;;;;6.32;3.45;;;;;;;30.73;32.41;100037.06;5072127;28;20040;-68
2022/07/27 06:28:03;;;;;;;6.15;3.15;;;;;;;30.71;32.54;100039.22;5072064;28;20045;-68
2022/07/27 06:30:31;;;;;;;6.05;3.00;;;;;;;31.21;31.38;100044.56;5070822;28;20139;-69
2022/07/27 06:32:59;;;;;;;4.70;2.90;;;;;;;30.85;32.43;100039.91;5072056;28;20051;-69
2022/07/27 06:35:27;;;;;;;5.15;2.97;;;;;;;29.93;33.42;100047.09;5072437;28;20119;-69
2022/07/27 06:37:57;;;;;;;8.77;3.50;;;;;;;30.38;33.09;100030.44;5073363;28;20080;-71
2022/07/27 06:40:25;;;;;;;6.47;3.13;;;;;;;30.40;33.05;100036.53;5075765;28;20049;-73
2022/07/27 06:42:57;;;;;;;5.73;2.90;;;;;;;30.30;32.58;100034.31;5075836;28;20046;-67
2022/07/27 06:45:25;;;;;;;9.15;3.10;;;;;;;30.71;32.43;100041.97;5074629;28;20076;-70
2022/07/27 06:47:53;;;;;;;6.03;2.80;;;;;;;30.82;32.10;100045.03;5075570;28;20489;-71
2022/07/27 06:50:22;;;;;;;6.95;3.15;;;;;;;31.07;31.81;100037.50;5075744;28;20075;-70
2022/07/27 06:52:50;;;;;;;5.35;2.75;;;;;;;30.72;32.10;100034.56;5073984;28;20048;-68
2022/07/27 06:55:20;;;;;;;5.00;2.78;;;;;;;30.78;32.38;100031.69;5073944;28;20072;-70
2022/07/27 06:57:48;;;;;;;6.25;3.00;;;;;;;30.87;32.02;100035.00;5074120;28;20040;-69
2022/07/27 07:00:17;;;;;;;6.05;3.10;;;;;;;30.95;31.74;100028.34;5075564;28;20052;-70
2022/07/27 07:02:58;;;;;;;4.95;2.83;;;;;;;29.98;33.32;100029.91;5075232;28;20048;-71
2022/07/27 07:05:27;;;;;;;10.65;2.88;;;;;;;29.77;34.33;100031.13;5074169;28;20053;-70
2022/07/27 07:07:55;;;;;;;8.15;2.85;;;;;;;29.35;34.24;100031.59;5074891;28;20052;-70
2022/07/27 07:10:26;;;;;;;6.15;2.75;;;;;;;28.42;35.90;100032.94;5074050;28;20066;-70
2022/07/27 07:12:55;;;;;;;6.95;3.05;;;;;;;28.50;37.28;100032.72;5075108;28;20067;-71
2022/07/27 07:15:25;;;;;;;5.22;2.78;;;;;;;28.09;37.12;100043.94;5075237;28;20044;-70
2022/07/27 07:17:53;;;;;;;6.35;2.92;;;;;;;28.00;36.24;100039.72;5073738;28;20045;-70
2022/07/27 07:20:22;;;;;;;6.30;2.80;;;;;;;27.67;37.22;100029.53;5073732;28;20131;-70
2022/07/27 07:22:51;;;;;;;4.85;2.85;;;;;;;27.78;37.33;100030.81;5075012;28;20041;-71
2022/07/27 07:25:19;;;;;;;5.50;2.97;;;;;;;27.79;38.38;100027.88;5073787;28;20131;-69
2022/07/27 07:27:49;;;;;;;5.63;3.00;;;;;;;27.62;38.09;100015.63;5074764;28;20053;-71
2022/07/27 07:30:17;;;;;;;5.60;2.70;;;;;;;27.31;38.08;100013.41;5074762;28;20135;-70
2022/07/27 07:32:46;;;;;;;6.63;2.45;;;;;;;27.26;38.41;100015.94;5074879;28;20047;-72
2022/07/27 07:35:15;;;;;;;6.35;2.80;;;;;;;26.90;39.07;100024.41;5075069;28;20044;-70
2022/07/27 07:37:43;;;;;;;6.68;3.10;;;;;;;26.49;40.17;100014.31;5074981;28;20115;-70
2022/07/27 07:40:18;;;;;;;6.53;2.90;;;;;;;26.45;39.91;100013.88;5075007;28;20047;-70
2022/07/27 07:43:08;;;;;;;3.35;2.40;;;;;;;26.63;38.24;100015.22;5073180;28;20476;-71
2022/07/27 07:45:37;;;;;;;4.47;2.70;;;;;;;26.51;39.30;100004.00;5074557;28;20045;-70
2022/07/27 07:48:20;;;;;;;6.35;2.47;;;;;;;26.70;38.94;100005.16;5073688;28;20059;-70
2022/07/27 07:50:48;;;;;;;4.65;2.70;;;;;;;26.56;38.80;99998.78;5074251;28;20040;-71
2022/07/27 07:53:21;;;;;;;4.03;2.60;;;;;;;26.31;39.60;100000.28;5090136;28;20048;-70
2022/07/27 07:55:49;;;;;;;4.40;2.70;;;;;;;26.49;38.35;100000.63;5074118;28;20045;-70
2022/07/27 07:58:19;;;;;;;6.68;2.83;;;;;;;26.61;37.90;100001.75;5073097;28;20044;-70
2022/07/27 08:00:48;;;;;;;6.35;2.72;;;;;;;26.74;37.69;99992.78;5074235;28;20148;-71
2022/07/27 08:03:16;;;;;;;5.07;2.38;;;;;;;26.89;37.47;100004.41;5074153;28;20043;-71
2022/07/27 08:05:45;;;;;;;5.72;2.30;;;;;;;27.04;37.17;100004.31;5074250;28;20378;-71
2022/07/27 08:08:13;;;;;;;5.50;2.65;;;;;;;26.84;36.67;100006.94;5074210;28;20040;-70
2022/07/27 08:10:41;;;;;;;5.43;2.63;;;;;;;26.98;36.41;100007.81;5074207;28;20427;-70
2022/07/27 08:13:09;;;;;;;5.20;2.50;;;;;;;26.90;36.25;99997.03;5074151;28;20068;-70
2022/07/27 08:15:39;;;;;;;3.85;2.20;;;;;;;26.74;36.67;99996.38;5072804;28;20401;-70
2022/07/27 08:18:08;;;;;;;5.88;2.40;;;;;;;26.84;37.24;99995.13;5073597;28;20040;-71
2022/07/27 08:20:36;;;;;;;7.28;3.05;;;;;;;27.00;37.45;99992.03;5072605;28;20067;-70
2022/07/27 08:23:05;;;;;;;5.63;2.33;;;;;;;27.26;37.13;99989.41;5072569;28;20052;-70
2022/07/27 08:25:33;;;;;;;4.90;2.90;;;;;;;27.17;37.58;99998.03;5073803;28;20127;-70
2022/07/27 08:28:01;;;;;;;5.72;2.80;;;;;;;27.03;36.71;99994.41;5073663;28;20036;-70
2022/07/27 08:30:31;;;;;;;6.30;2.95;;;;;;;26.96;37.41;99996.25;5073553;28;20048;-70
2022/07/27 08:33:04;;;;;;;4.53;2.58;;;;;;;27.05;37.14;99998.63;5073593;28;20044;-70
2022/07/27 08:35:33;;;;;;;4.75;2.58;;;;;;;27.23;36.69;99989.00;5073929;28;20374;-70
2022/07/27 08:38:03;;;;;;;4.22;2.42;;;;;;;27.12;37.37;99998.66;5073480;28;20090;-71
2022/07/27 08:40:32;;;;;;;4.70;2.50;;;;;;;27.16;37.11;99994.44;5073595;28;20119;-70
2022/07/27 08:43:08;;;;;;;4.60;2.50;;;;;;;27.14;37.78;99991.06;5073386;28;20041;-71
2022/07/27 08:45:38;;;;;;;4.40;2.58;;;;;;;27.07;37.91;99984.72;5073363;28;20049;-71
2022/07/27 08:48:11;;;;;;;7.05;3.22;;;;;;;27.48;37.25;99989.22;5071964;28;20048;-71
2022/07/27 08:50:41;;;;;;;8.93;3.80;;;;;;;27.59;36.76;99981.25;5072450;28;20049;-70
2022/07/27 08:53:13;;;;;;;5.63;4.00;;;;;;;27.37;35.72;99997.00;5071962;28;20558;-70
2022/07/27 08:55:43;;;;;;;7.07;4.30;;;;;;;27.27;36.28;99979.31;5073337;28;20068;-70
2022/07/27 08:58:13;;;;;;;8.23;4.80;;;;;;;27.17;36.64;99978.84;5073175;28;20032;-70
2022/07/27 09:00:43;;;;;;;7.72;4.30;;;;;;;27.42;36.27;99976.41;5072730;28;20082;-70
2022/07/27 09:03:17;;;;;;;7.03;4.10;;;;;;;27.40;35.83;99973.84;5071586;28;20052;-70
2022/07/27 09:05:50;;;;;;;6.47;4.25;;;;;;;27.29;35.91;99975.28;5072245;28;20052;-71
2022/07/27 09:08:22;;;;;;;7.82;4.50;;;;;;;27.38;35.06;99974.06;5073083;28;20570;-70
2022/07/27 09:10:53;;;;;;;6.78;3.90;;;;;;;27.03;35.80;99973.34;5073085;28;20044;-75
2022/07/27 09:13:27;;;;;;;6.57;3.90;;;;;;;27.24;36.19;99972.34;5073173;28;20116;-70
2022/07/27 09:15:56;;;;;;;7.68;4.47;;;;;;;27.30;35.83;99979.72;5071599;28;20135;-70
2022/07/27 09:18:47;;;;;;;8.68;3.53;;;;;;;27.43;35.70;99959.75;5071727;28;20059;-70
2022/07/27 09:21:17;;;;;;;5.60;4.07;;;;;;;27.70;35.44;99968.88;5072951;28;20076;-70
2022/07/27 09:23:48;;;;;;;7.18;5.05;;;;;;;27.67;33.85;99974.75;5073424;28;20552;-71
2022/07/27 09:26:19;;;;;;;10.38;5.32;;;;;;;27.56;33.65;99967.13;5072670;28;20436;-70
2022/07/27 09:29:07;;;;;;;7.13;5.00;;;;;;;27.72;33.78;99961.28;5072727;28;20414;-71
2022/07/27 09:31:42;;;;;;;6.25;4.82;;;;;;;27.89;33.13;99976.25;5071555;28;20135;-70
2022/07/27 09:34:13;;;;;;;8.48;4.80;;;;;;;27.86;33.01;99968.44;5072950;28;20048;-70
2022/07/27 09:36:52;;;;;;;7.00;4.70;;;;;;;28.00;31.93;99960.22;5072764;28;20469;-70
2022/07/27 09:39:22;;;;;;;10.05;5.53;;;;;;;27.83;32.11;99963.38;5071705;28;20398;-70
2022/07/27 09:41:53;;;;;;;6.32;5.07;;;;;;;27.71;32.57;99956.84;5071594;28;20102;-70
2022/07/27 09:44:33;;;;;;;8.05;6.05;;;;;;;27.83;30.80;99963.38;5073285;28;20051;-70
2022/07/27 09:47:25;;;;;;;7.75;6.18;;;;;;;28.00;30.73;99954.72;5072486;28;20095;-70
2022/07/27 09:49:56;;;;;;;7.63;5.20;;;;;;;28.20;31.36;99964.59;5072736;28;20394;-74
2022/07/27 09:52:27;;;;;;;9.35;6.03;;;;;;;28.10;30.46;99957.88;5071362;28;20044;-70
2022/07/27 09:55:02;;;;;;;10.77;6.35;;;;;;;28.07;30.57;99952.81;5071381;28;20055;-71
2022/07/27 09:57:31;;;;;;;11.57;7.65;;;;;;;28.21;30.13;99943.50;5071604;28;20045;-70
2022/07/27 10:00:10;;;;;;;11.73;7.80;;;;;;;28.33;29.26;99961.00;5072405;28;20048;-70
2022/07/27 10:02:39;;;;;;;8.57;6.80;;;;;;;27.97;30.21;99957.88;5071288;28;20131;-71
2022/07/27 10:05:10;;;;;;;8.70;6.82;;;;;;;27.85;29.97;99964.00;5072463;28;20328;-71
2022/07/27 10:07:40;;;;;;;8.73;6.60;;;;;;;28.06;29.39;99964.81;5072622;28;20041;-70
2022/07/27 10:10:09;;;;;;;9.95;6.75;;;;;;;27.93;29.86;99963.78;5072152;28;20098;-71
2022/07/27 10:12:37;;;;;;;8.18;6.15;;;;;;;28.27;29.33;99952.75;5073471;28;20488;-70
2022/07/27 10:15:07;;;;;;;8.80;5.95;;;;;;;28.19;29.20;99959.34;5075058;28;20060;-70
2022/07/27 10:17:36;;;;;;;6.55;5.55;;;;;;;28.45;29.55;99953.81;5076529;28;20072;-70
2022/07/27 10:20:10;;;;;;;10.57;5.63;;;;;;;28.52;29.16;99951.88;5074924;28;20051;-70
2022/07/27 10:22:50;;;;;;;6.40;4.97;;;;;;;28.54;28.21;99953.56;5076396;28;20045;-70
2022/07/27 10:25:18;;;;;;;8.15;5.50;;;;;;;28.32;28.35;99951.09;5074712;28;20056;-70
2022/07/27 10:27:48;;;;;;;9.50;5.55;;;;;;;28.56;28.28;99948.69;5076112;28;20056;-70
2022/07/27 10:30:17;;;;;;;7.35;5.60;;;;;;;28.51;29.84;99947.47;5074633;28;20086;-71
2022/07/27 10:32:54;;;;;;;7.65;6.10;;;;;;;28.65;28.99;99941.91;5075055;28;20063;-70
2022/07/27 10:35:34;;;;;;;8.82;6.50;;;;;;;28.92;27.68;99949.00;5075062;28;20048;-71
2022/07/27 10:38:11;;;;;;;8.15;5.63;;;;;;;28.61;27.01;99948.91;5075814;28;20040;-70
2022/07/27 10:40:40;;;;;;;6.72;5.35;;;;;;;28.51;26.72;99952.94;5076068;28;20040;-70
2022/07/27 10:43:17;;;;;;;9.40;6.25;;;;;;;28.64;25.36;99943.81;5074370;28;20108;-70
2022/07/27 10:45:48;;;;;;;6.35;5.47;;;;;;;28.76;25.79;99946.75;5076027;28;20401;-70
2022/07/27 10:48:36;;;;;;;8.38;5.95;;;;;;;28.92;25.66;99938.03;5075775;28;20119;-70
2022/07/27 10:51:07;;;;;;;8.82;6.32;;;;;;;28.93;26.18;99936.13;5075512;28;20101;-71
2022/07/27 10:53:37;;;;;;;8.85;6.57;;;;;;;29.14;26.58;99938.53;5074821;28;20048;-70
2022/07/27 10:56:44;;;;;;;8.55;5.70;;;;;;;29.09;25.70;99941.09;5074636;28;20048;-70
2022/07/27 10:59:12;;;;;;;8.05;5.40;;;;;;;28.93;26.77;99941.59;5073967;28;20135;-70
2022/07/27 11:01:56;;;;;;;7.80;5.43;;;;;;;28.90;26.76;99931.91;5074235;28;20048;-70
2022/07/27 11:04:24;;;;;;;7.30;5.53;;;;;;;28.82;26.30;99932.13;5075693;28;20162;-70
2022/07/27 11:06:59;;;;;;;7.88;5.55;;;;;;;29.08;26.40;99926.53;5074163;28;20051;-70
2022/07/27 11:09:49;;;;;;;7.10;5.30;;;;;;;28.96;27.15;99925.56;5074248;28;20055;-70
2022/07/27 11:12:35;;;;;;;6.30;4.40;;;;;;;29.22;25.39;99935.53;5075339;28;20044;-70
2022/07/27 11:15:04;;;;;;;5.63;3.53;;;;;;;28.75;23.84;99934.06;5075087;28;20033;-70
2022/07/27 11:17:32;;;;;;;6.68;4.18;;;;;;;28.91;24.27;99914.38;5073771;28;20051;-70
2022/07/27 11:20:23;;;;;;;5.50;3.90;;;;;;;29.10;23.96;99925.47;5074932;28;20049;-70
2022/07/27 11:22:58;;;;;;;4.78;3.22;;;;;;;29.19;23.64;99924.16;5074712;28;20048;-70
2022/07/27 11:25:58;;;;;;;7.43;4.80;;;;;;;29.10;24.23;99919.97;5075409;28;20496;-70
2022/07/27 11:28:30;;;;;;;7.20;5.28;;;;;;;29.06;25.67;99911.34;5075214;28;20041;-70
2022/07/27 11:30:59;;;;;;;7.40;5.60;;;;;;;28.89;25.70;99915.66;5074870;28;20235;-70
2022/07/27 11:33:31;;;;;;;7.03;5.80;;;;;;;29.16;26.24;99911.72;5074764;28;20048;-70
2022/07/27 11:36:01;;;;;;;9.27;6.05;;;;;;;29.44;26.18;99910.47;5074960;28;20127;-70
2022/07/27 11:38:44;;;;;;;7.18;5.40;;;;;;;29.58;25.19;99903.81;5075052;28;20072;-70
2022/07/27 11:41:25;;;;;;;6.10;5.07;;;;;;;29.55;25.22;99920.75;5073370;28;20059;-70
2022/07/27 11:44:15;;;;;;;8.45;4.05;;;;;;;29.67;24.18;99910.69;5074846;28;20090;-70
2022/07/27 11:46:45;;;;;;;6.03;4.22;;;;;;;29.53;23.54;99918.22;5073457;28;20049;-70
2022/07/27 11:49:15;;;;;;;5.95;3.95;;;;;;;29.40;24.09;99909.19;5073265;28;20400;-70